createdAt,value
2022-10-14T00:01:19.860Z,78.96
2022-10-14T00:03:48.061Z,78.08
2022-10-14T00:06:18.374Z,78.36
2022-10-14T00:08:45.226Z,80.04
2022-10-14T00:11:14.049Z,79.44
2022-10-14T00:13:40.655Z,77.60
2022-10-14T00:16:14.792Z,77.93
2022-10-14T00:18:41.215Z,76.58
2022-10-14T00:21:12.089Z,78.05
2022-10-14T00:23:38.586Z,79.05
2022-10-14T00:26:05.424Z,78.77
2022-10-14T00:28:32.746Z,79.25
2022-10-14T00:31:01.114Z,78.93
2022-10-14T00:33:28.664Z,78.74
2022-10-14T00:35:56.322Z,77.89
2022-10-14T00:38:25.069Z,79.67
2022-10-14T00:40:51.643Z,78.29
2022-10-14T00:43:19.016Z,77.43
2022-10-14T00:45:45.483Z,79.19
2022-10-14T00:48:13.223Z,78.15
2022-10-14T00:50:43.260Z,76.36
2022-10-14T00:53:11.199Z,78.28
2022-10-14T00:55:40.072Z,77.51
2022-10-14T00:58:07.306Z,78.27
2022-10-14T01:00:33.915Z,77.19
2022-10-14T01:03:00.437Z,79.21
2022-10-14T01:05:31.919Z,77.98
2022-10-14T01:08:05.526Z,78.03
2022-10-14T01:10:36.802Z,77.41
2022-10-14T01:13:14.032Z,79.52
2022-10-14T01:15:50.833Z,77.90
2022-10-14T01:18:33.494Z,78.93
2022-10-14T01:21:15.655Z,78.52
2022-10-14T01:24:22.965Z,78.55
2022-10-14T01:27:07.573Z,78.36
2022-10-14T01:29:55.033Z,78.42
2022-10-14T01:32:26.257Z,78.41
2022-10-14T01:35:01.251Z,77.66
2022-10-14T01:37:30.454Z,79.20
2022-10-14T01:40:00.943Z,79.47
2022-10-14T01:42:31.622Z,79.42
2022-10-14T01:45:04.643Z,78.10
2022-10-14T01:47:34.414Z,79.87
2022-10-14T01:50:06.835Z,77.32
2022-10-14T01:52:37.886Z,78.93
2022-10-14T01:55:09.388Z,78.78
2022-10-14T01:57:38.398Z,77.08
2022-10-14T02:00:07.523Z,80.17
2022-10-14T02:02:36.331Z,78.05
2022-10-14T02:05:05.184Z,77.67
2022-10-14T02:07:38.048Z,78.21
2022-10-14T02:10:13.535Z,78.51
2022-10-14T02:12:51.428Z,78.50
2022-10-14T02:15:27.171Z,77.93
2022-10-14T02:18:01.457Z,78.06
2022-10-14T02:20:33.358Z,78.88
2022-10-14T02:23:04.438Z,78.28
2022-10-14T02:25:34.273Z,79.84
2022-10-14T02:28:03.858Z,77.67
2022-10-14T02:30:37.786Z,81.58
2022-10-14T02:33:05.547Z,81.29
2022-10-14T02:35:34.550Z,80.66
2022-10-14T02:38:01.985Z,78.20
2022-10-14T02:40:35.331Z,78.66
2022-10-14T02:43:01.860Z,77.84
2022-10-14T02:45:28.286Z,79.06
2022-10-14T02:47:56.108Z,78.67
2022-10-14T02:50:22.510Z,78.30
2022-10-14T02:52:49.141Z,78.85
2022-10-14T02:55:15.556Z,79.32
2022-10-14T02:57:41.987Z,80.12
2022-10-14T03:00:09.948Z,80.28
2022-10-14T03:02:36.342Z,80.22
2022-10-14T03:05:04.819Z,79.13
2022-10-14T03:07:31.443Z,78.87
2022-10-14T03:09:57.873Z,79.97
2022-10-14T03:12:24.549Z,79.66
2022-10-14T03:14:51.130Z,78.50
2022-10-14T03:17:17.848Z,81.78
2022-10-14T03:19:44.228Z,80.14
2022-10-14T03:22:12.228Z,80.51
2022-10-14T03:24:38.783Z,81.15
2022-10-14T03:27:05.219Z,78.71
2022-10-14T03:29:31.656Z,78.98
2022-10-14T03:31:58.112Z,80.13
2022-10-14T03:34:24.517Z,79.04
2022-10-14T03:36:50.967Z,77.78
2022-10-14T03:39:18.848Z,77.65
2022-10-14T03:41:45.227Z,77.60
2022-10-14T03:44:11.841Z,81.22
2022-10-14T03:46:38.516Z,81.59
2022-10-14T03:49:04.943Z,78.98
2022-10-14T03:51:31.344Z,78.74
2022-10-14T03:53:57.754Z,79.32
2022-10-14T03:56:25.665Z,78.07
2022-10-14T03:58:52.055Z,79.19
2022-10-14T04:01:18.498Z,79.79
2022-10-14T04:03:44.957Z,79.44
2022-10-14T04:06:11.370Z,79.16
2022-10-14T04:08:37.880Z,78.88
2022-10-14T04:11:04.634Z,78.88
2022-10-14T04:13:32.440Z,79.60
2022-10-14T04:16:02.875Z,78.26
2022-10-14T04:18:29.274Z,78.52
2022-10-14T04:20:59.159Z,78.64
2022-10-14T04:23:25.577Z,78.75
2022-10-14T04:25:52.001Z,81.52
2022-10-14T04:28:18.475Z,81.42
2022-10-14T04:30:46.212Z,80.47
2022-10-14T04:33:13.131Z,83.14
2022-10-14T04:35:39.700Z,81.86
2022-10-14T04:38:06.150Z,79.34
2022-10-14T04:40:32.565Z,81.31
2022-10-14T04:42:59.269Z,80.47
2022-10-14T04:45:25.857Z,80.10
2022-10-14T04:47:53.646Z,81.34
2022-10-14T04:50:20.077Z,79.89
2022-10-14T04:52:46.594Z,80.69
2022-10-14T04:55:13.398Z,79.11
2022-10-14T04:57:39.891Z,78.95
2022-10-14T05:00:07.926Z,81.79
2022-10-14T05:02:34.302Z,80.37
2022-10-14T05:05:02.219Z,79.69
2022-10-14T05:07:28.751Z,79.25
2022-10-14T05:09:56.691Z,80.17
2022-10-14T05:12:23.805Z,80.69
2022-10-14T05:14:50.352Z,79.04
2022-10-14T05:17:16.796Z,78.58
2022-10-14T05:19:43.215Z,79.69
2022-10-14T05:22:10.962Z,79.42
2022-10-14T05:24:37.357Z,78.88
2022-10-14T05:27:04.082Z,80.08
2022-10-14T05:29:30.659Z,78.61
2022-10-14T05:31:57.074Z,79.07
2022-10-14T05:34:23.676Z,78.80
2022-10-14T05:36:50.176Z,80.39
2022-10-14T05:39:17.913Z,79.39
2022-10-14T05:41:44.446Z,78.82
2022-10-14T05:44:11.681Z,79.40
2022-10-14T05:46:38.071Z,78.28
2022-10-14T05:49:04.538Z,79.08
2022-10-14T05:51:30.975Z,80.12
2022-10-14T05:53:57.366Z,78.89
2022-10-14T05:56:25.348Z,79.67
2022-10-14T05:58:51.898Z,79.28
2022-10-14T06:01:18.290Z,78.94
2022-10-14T06:03:44.741Z,79.26
2022-10-14T06:06:12.569Z,78.58
2022-10-14T06:08:39.112Z,78.46
2022-10-14T06:11:06.196Z,78.38
2022-10-14T06:13:34.336Z,78.01
2022-10-14T06:16:03.171Z,77.01
2022-10-14T06:18:29.591Z,78.40
2022-10-14T06:20:56.025Z,78.21
2022-10-14T06:23:22.453Z,77.80
2022-10-14T06:25:48.912Z,77.48
2022-10-14T06:28:15.332Z,76.98
2022-10-14T06:30:44.078Z,77.45
2022-10-14T06:33:10.479Z,80.37
2022-10-14T06:35:36.937Z,80.97
2022-10-14T06:38:03.333Z,77.76
2022-10-14T06:40:29.772Z,77.17
2022-10-14T06:42:58.111Z,77.34
2022-10-14T06:45:24.528Z,77.14
2022-10-14T06:47:52.291Z,77.34
2022-10-14T06:50:18.929Z,80.07
2022-10-14T06:52:45.576Z,78.29
2022-10-14T06:55:12.447Z,79.35
2022-10-14T06:57:39.020Z,77.92
2022-10-14T07:00:07.203Z,76.86
2022-10-14T07:02:33.655Z,78.79
2022-10-14T07:05:01.432Z,78.00
2022-10-14T07:07:28.016Z,77.87
2022-10-14T07:09:54.528Z,77.79
2022-10-14T07:12:21.420Z,78.76
2022-10-14T07:14:48.003Z,78.50
2022-10-14T07:17:14.399Z,81.11
2022-10-14T07:19:40.860Z,78.99
2022-10-14T07:22:08.694Z,78.91
2022-10-14T07:24:35.070Z,76.93
2022-10-14T07:29:30.107Z,77.89
2022-10-14T07:31:56.563Z,78.40
2022-10-14T07:34:23.130Z,78.92
2022-10-14T07:36:49.579Z,79.20
2022-10-14T07:39:17.361Z,78.13
2022-10-14T07:41:43.796Z,77.24
2022-10-14T07:44:11.131Z,76.89
2022-10-14T07:46:40.904Z,79.01
2022-10-14T07:49:10.562Z,76.22
2022-10-14T07:51:37.754Z,77.33
2022-10-14T07:54:06.463Z,78.46
2022-10-14T07:56:36.829Z,78.04
2022-10-14T07:59:03.396Z,77.89
2022-10-14T08:01:30.067Z,77.73
2022-10-14T08:03:56.639Z,78.94
2022-10-14T08:06:23.158Z,79.50
2022-10-14T08:08:49.914Z,78.09
2022-10-14T08:11:19.054Z,78.08
2022-10-14T08:13:47.002Z,76.92
2022-10-14T08:16:15.597Z,76.51
2022-10-14T08:18:42.183Z,74.21
2022-10-14T08:21:08.788Z,75.03
2022-10-14T08:23:35.394Z,76.92
2022-10-14T08:26:01.908Z,75.04
2022-10-14T08:28:28.437Z,74.70
2022-10-14T08:30:56.251Z,75.45
2022-10-14T08:33:22.748Z,76.04
2022-10-14T08:35:53.086Z,79.00
2022-10-14T08:38:20.607Z,76.60
2022-10-14T08:41:00.668Z,76.83
2022-10-14T08:43:32.439Z,77.94
2022-10-14T08:46:09.702Z,76.63
2022-10-14T08:48:37.240Z,75.08
2022-10-14T08:51:07.435Z,76.77
2022-10-14T08:53:40.048Z,76.78
2022-10-14T08:56:07.932Z,74.79
2022-10-14T08:58:37.572Z,75.58
2022-10-14T09:01:15.822Z,74.36
2022-10-14T09:03:42.668Z,73.57
2022-10-14T09:06:14.184Z,73.23
2022-10-14T09:08:43.725Z,73.59
2022-10-14T09:11:13.932Z,74.24
2022-10-14T09:13:43.983Z,73.91
2022-10-14T09:16:17.319Z,74.29
2022-10-14T09:18:50.963Z,75.09
2022-10-14T09:21:40.553Z,72.11
2022-10-14T09:24:15.089Z,74.11
2022-10-14T09:26:43.682Z,75.19
2022-10-14T09:29:22.502Z,75.69
2022-10-14T09:31:51.081Z,75.71
2022-10-14T09:34:20.436Z,73.10
2022-10-14T09:36:50.213Z,69.86
2022-10-14T09:39:17.143Z,69.49
2022-10-14T09:41:46.340Z,70.88
2022-10-14T09:44:18.960Z,67.90
2022-10-14T09:46:54.944Z,70.20
2022-10-14T09:49:32.004Z,69.50
2022-10-14T09:51:58.808Z,71.92
2022-10-14T09:54:29.216Z,68.22
2022-10-14T09:57:02.085Z,71.27
2022-10-14T09:59:29.011Z,69.36
2022-10-14T10:01:59.652Z,68.84
2022-10-14T10:04:33.672Z,71.35
2022-10-14T10:07:03.472Z,72.46
2022-10-14T10:09:29.973Z,71.58
2022-10-14T10:11:56.381Z,71.14
2022-10-14T10:14:25.440Z,68.11
2022-10-14T10:17:12.659Z,68.55
2022-10-14T10:19:41.252Z,69.40
2022-10-14T10:22:23.190Z,67.92
2022-10-14T10:24:51.839Z,66.40
2022-10-14T10:27:25.168Z,67.92
2022-10-14T10:29:51.930Z,66.48
2022-10-14T10:32:28.782Z,63.92
2022-10-14T10:35:14.762Z,65.53
2022-10-14T10:37:52.679Z,66.37
2022-10-14T10:40:30.174Z,65.84
2022-10-14T10:43:27.889Z,66.96
2022-10-14T10:46:04.322Z,66.00
2022-10-14T10:48:41.575Z,65.18
2022-10-14T10:51:12.591Z,63.71
2022-10-14T10:54:01.670Z,65.83
2022-10-14T10:56:36.354Z,65.87
2022-10-14T10:59:25.283Z,62.73
2022-10-14T11:02:00.861Z,62.30
2022-10-14T11:04:32.850Z,63.38
2022-10-14T11:07:14.522Z,63.95
2022-10-14T11:09:49.231Z,65.74
2022-10-14T11:12:22.603Z,63.65
2022-10-14T11:15:12.153Z,64.95
2022-10-14T11:17:47.041Z,64.81
2022-10-14T11:20:25.508Z,62.31
2022-10-14T11:23:09.706Z,63.51
2022-10-14T11:25:44.861Z,64.67
2022-10-14T11:28:18.911Z,66.52
2022-10-14T11:30:52.030Z,64.36
2022-10-14T11:33:45.244Z,65.60
2022-10-14T11:36:24.007Z,66.26
2022-10-14T11:39:02.628Z,64.25
2022-10-14T11:41:38.444Z,62.30
2022-10-14T11:44:14.472Z,64.11
2022-10-14T11:46:46.343Z,63.03
2022-10-14T11:49:20.648Z,62.41
2022-10-14T11:51:52.763Z,63.98
2022-10-14T11:54:27.072Z,63.30
2022-10-14T11:56:57.708Z,62.01
2022-10-14T11:59:37.472Z,60.89
2022-10-14T12:02:17.697Z,62.08
2022-10-14T12:04:50.060Z,62.15
2022-10-14T12:07:23.930Z,63.29
2022-10-14T12:09:57.387Z,62.12
2022-10-14T12:12:28.934Z,63.55
2022-10-14T12:14:58.939Z,61.29
2022-10-14T12:17:31.972Z,65.02
2022-10-14T12:20:03.555Z,63.80
2022-10-14T12:22:32.678Z,64.87
2022-10-14T12:25:03.428Z,64.26
2022-10-14T12:27:30.825Z,63.69
2022-10-14T12:29:57.694Z,62.11
2022-10-14T12:32:26.553Z,62.52
2022-10-14T12:34:54.571Z,61.81
2022-10-14T12:37:52.759Z,60.47
2022-10-14T12:40:27.525Z,62.00
2022-10-14T12:43:22.582Z,60.67
2022-10-14T12:45:56.542Z,60.93
2022-10-14T12:48:25.116Z,64.16
2022-10-14T12:50:57.274Z,63.29
2022-10-14T12:53:28.498Z,61.97
2022-10-14T12:55:57.650Z,62.51
2022-10-14T12:58:28.206Z,64.16
2022-10-14T13:01:00.708Z,65.12
2022-10-14T13:03:32.510Z,63.97
2022-10-14T13:06:40.931Z,60.74
2022-10-14T13:09:41.828Z,63.32
2022-10-14T13:12:41.200Z,63.39
2022-10-14T13:15:37.259Z,64.02
2022-10-14T13:18:41.244Z,62.26
2022-10-14T13:21:08.587Z,62.00
2022-10-14T13:23:41.096Z,65.25
2022-10-14T13:26:22.015Z,61.38
2022-10-14T13:29:05.197Z,60.57
2022-10-14T13:31:38.330Z,63.51
2022-10-14T13:34:16.398Z,61.63
2022-10-14T13:36:53.998Z,63.22
2022-10-14T13:39:20.929Z,64.90
2022-10-14T13:41:49.632Z,63.06
2022-10-14T13:44:18.511Z,62.96
2022-10-14T13:46:48.039Z,63.33
2022-10-14T13:49:17.774Z,62.67
2022-10-14T13:51:47.619Z,64.80
2022-10-14T13:54:19.893Z,63.28
2022-10-14T13:57:31.558Z,63.09
2022-10-14T14:00:38.127Z,63.36
2022-10-14T14:02:35.479Z,63.50
2022-10-14T14:05:02.145Z,63.35
2022-10-14T14:08:08.105Z,63.69
2022-10-14T14:10:24.492Z,61.20
2022-10-14T14:12:52.688Z,62.20
2022-10-14T14:15:23.509Z,61.66
2022-10-14T14:17:50.039Z,62.74
2022-10-14T14:20:21.004Z,63.88
2022-10-14T14:22:47.633Z,64.19
2022-10-14T14:25:34.104Z,64.06
2022-10-14T14:28:04.459Z,64.59
2022-10-14T14:30:33.367Z,63.19
2022-10-14T14:33:03.926Z,64.46
2022-10-14T14:35:30.445Z,63.19
2022-10-14T14:37:56.971Z,64.65
2022-10-14T14:40:25.435Z,64.76
2022-10-14T14:42:53.947Z,65.00
2022-10-14T14:45:24.455Z,62.14
2022-10-14T14:47:53.132Z,63.60
2022-10-14T14:50:31.958Z,64.46
2022-10-14T14:53:02.629Z,65.62
2022-10-14T14:55:39.567Z,64.79
2022-10-14T14:58:19.896Z,64.51
2022-10-14T15:00:48.035Z,65.56
2022-10-14T15:03:14.927Z,65.43
2022-10-14T15:05:41.363Z,63.82
2022-10-14T15:08:19.500Z,64.60
2022-10-14T15:10:48.534Z,63.47
2022-10-14T15:13:27.148Z,64.07
2022-10-14T15:15:54.952Z,64.88
2022-10-14T15:18:23.477Z,65.34
2022-10-14T15:20:51.049Z,66.41
2022-10-14T15:23:37.906Z,63.86
2022-10-14T15:26:04.664Z,64.34
2022-10-14T15:28:32.249Z,66.06
2022-10-14T15:31:04.616Z,66.52
2022-10-14T15:33:32.307Z,66.82
2022-10-14T15:36:01.127Z,65.45
2022-10-14T15:38:28.509Z,65.69
2022-10-14T15:40:55.028Z,66.73
2022-10-14T15:43:23.055Z,65.44
2022-10-14T15:45:51.280Z,65.68
2022-10-14T15:48:19.812Z,65.72
2022-10-14T15:50:47.300Z,66.45
2022-10-14T15:53:16.683Z,67.11
2022-10-14T15:55:43.111Z,65.62
2022-10-14T15:58:09.521Z,64.69
2022-10-14T16:00:35.959Z,64.49
2022-10-14T16:03:02.536Z,66.36
2022-10-14T16:05:30.470Z,66.89
2022-10-14T16:07:57.814Z,66.43
2022-10-14T16:10:28.135Z,65.84
2022-10-14T16:12:57.058Z,68.37
2022-10-14T16:15:30.037Z,65.18
2022-10-14T16:17:56.441Z,66.23
2022-10-14T16:20:23.354Z,65.42
2022-10-14T16:22:51.087Z,68.88
2022-10-14T16:25:21.589Z,68.39
2022-10-14T16:27:48.075Z,67.13
2022-10-14T16:30:14.655Z,65.99
2022-10-14T16:32:41.076Z,66.64
2022-10-14T16:35:09.050Z,68.27
2022-10-14T16:37:35.492Z,67.29
2022-10-14T16:40:03.822Z,66.24
2022-10-14T16:42:30.273Z,67.22
2022-10-14T16:44:56.783Z,68.52
2022-10-14T16:47:23.598Z,67.68
2022-10-14T16:49:50.694Z,67.54
2022-10-14T16:52:18.366Z,67.27
2022-10-14T16:54:44.852Z,68.25
2022-10-14T16:57:12.846Z,68.41
2022-10-14T16:59:39.530Z,68.11
2022-10-14T17:02:06.816Z,69.91
2022-10-14T17:04:33.195Z,68.71
2022-10-14T17:06:59.604Z,67.66
2022-10-14T17:09:26.175Z,68.52
2022-10-14T17:11:52.898Z,70.42
2022-10-14T17:14:20.771Z,70.04
2022-10-14T17:16:47.347Z,68.22
2022-10-14T17:19:13.796Z,68.08
2022-10-14T17:21:40.182Z,70.52
2022-10-14T17:24:07.162Z,72.32
2022-10-14T17:26:34.356Z,72.29
2022-10-14T17:29:01.195Z,72.98
2022-10-14T17:31:29.286Z,73.30
2022-10-14T17:33:55.905Z,74.07
2022-10-14T17:36:24.472Z,74.74
2022-10-14T17:38:51.046Z,74.17
2022-10-14T17:41:18.688Z,75.18
2022-10-14T17:43:45.302Z,75.92
2022-10-14T17:46:12.985Z,76.61
2022-10-14T17:48:41.716Z,76.05
2022-10-14T17:51:08.615Z,76.82
2022-10-14T17:53:35.094Z,76.06
2022-10-14T17:56:02.946Z,76.19
2022-10-14T17:58:29.359Z,77.67
2022-10-14T18:01:02.982Z,77.44
2022-10-14T18:03:30.343Z,76.78
2022-10-14T18:05:58.067Z,80.00
2022-10-14T18:08:24.529Z,78.52
2022-10-14T18:10:50.923Z,79.11
2022-10-14T18:13:17.333Z,77.65
2022-10-14T18:15:43.840Z,79.30
2022-10-14T18:18:10.335Z,78.84
2022-10-14T18:20:36.901Z,78.98
2022-10-14T18:23:04.650Z,77.97
2022-10-14T18:25:33.728Z,78.69
2022-10-14T18:28:00.127Z,81.07
2022-10-14T18:30:26.591Z,80.53
2022-10-14T18:32:54.644Z,79.25
2022-10-14T18:35:21.129Z,80.36
2022-10-14T18:37:48.216Z,80.49
2022-10-14T18:40:16.112Z,82.97
2022-10-14T18:42:42.635Z,82.20
2022-10-14T18:45:10.035Z,80.90
2022-10-14T18:47:36.512Z,81.28
2022-10-14T18:52:35.021Z,83.64
2022-10-14T18:55:01.420Z,80.47
2022-10-14T18:57:29.146Z,79.75
2022-10-14T18:59:55.632Z,81.18
2022-10-14T19:02:22.208Z,81.36
2022-10-14T19:04:48.841Z,79.08
2022-10-14T19:07:15.252Z,80.31
2022-10-14T19:09:41.750Z,80.99
2022-10-14T19:12:08.149Z,81.91
2022-10-14T19:14:35.920Z,80.79
2022-10-14T19:17:03.454Z,81.55
2022-10-14T19:19:29.910Z,80.21
2022-10-14T19:21:56.358Z,80.75
2022-10-14T19:24:22.776Z,81.12
2022-10-14T19:26:49.269Z,81.12
2022-10-14T19:29:16.159Z,81.85
2022-10-14T19:31:44.347Z,80.89
2022-10-14T19:34:12.672Z,83.77
2022-10-14T19:36:39.618Z,83.75
2022-10-14T19:39:08.151Z,81.19
2022-10-14T19:41:36.215Z,82.23
2022-10-14T19:44:02.642Z,81.71
2022-10-14T19:46:29.566Z,80.77
2022-10-14T19:48:59.298Z,80.07
2022-10-14T19:51:26.314Z,82.43
2022-10-14T19:53:54.231Z,83.32
2022-10-14T19:56:20.669Z,82.59
2022-10-14T19:58:50.325Z,82.05
2022-10-14T20:01:18.146Z,81.39
2022-10-14T20:03:44.629Z,83.47
2022-10-14T20:06:13.760Z,82.15
2022-10-14T20:08:40.812Z,83.90
2022-10-14T20:11:10.501Z,84.12
2022-10-14T20:13:37.438Z,83.91
2022-10-14T20:16:05.669Z,84.07
2022-10-14T20:18:32.467Z,84.26
2022-10-14T20:21:00.513Z,83.29
2022-10-14T20:23:28.869Z,85.84
2022-10-14T20:25:59.825Z,85.78
2022-10-14T20:28:26.271Z,85.84
2022-10-14T20:30:52.742Z,83.62
2022-10-14T20:33:19.878Z,85.19
2022-10-14T20:35:46.349Z,85.19
2022-10-14T20:38:12.775Z,83.94
2022-10-14T20:40:40.507Z,82.74
2022-10-14T20:43:06.925Z,83.76
2022-10-14T20:45:33.454Z,84.88
2022-10-14T20:47:59.833Z,83.82
2022-10-14T20:50:26.380Z,84.39
2022-10-14T20:52:52.785Z,83.17
2022-10-14T20:55:19.228Z,86.17
2022-10-14T20:57:47.002Z,85.98
2022-10-14T21:00:14.364Z,87.26
2022-10-14T21:02:40.918Z,86.76
2022-10-14T21:05:08.052Z,85.25
2022-10-14T21:07:34.526Z,84.56
2022-10-14T21:10:00.907Z,82.51
2022-10-14T21:12:27.414Z,81.43
2022-10-14T21:14:55.184Z,82.28
2022-10-14T21:17:21.584Z,82.73
2022-10-14T21:19:48.093Z,84.26
2022-10-14T21:22:14.548Z,83.66
2022-10-14T21:24:41.047Z,83.47
2022-10-14T21:27:07.632Z,85.48
2022-10-14T21:29:34.136Z,83.26
2022-10-14T21:32:01.984Z,83.90
2022-10-14T21:34:28.455Z,86.26
2022-10-14T21:36:54.860Z,84.29
2022-10-14T21:39:21.547Z,86.08
2022-10-14T21:41:48.104Z,86.19
2022-10-14T21:44:16.374Z,85.31
2022-10-14T21:46:42.814Z,83.87
2022-10-14T21:49:10.967Z,84.76
2022-10-14T21:51:37.974Z,83.49
2022-10-14T21:54:05.148Z,84.27
2022-10-14T21:56:32.113Z,82.21
2022-10-14T21:58:58.959Z,85.34
2022-10-14T22:01:27.260Z,83.03
2022-10-14T22:03:55.319Z,84.34
2022-10-14T22:06:23.430Z,85.48
2022-10-14T22:08:52.102Z,82.17
2022-10-14T22:11:21.174Z,84.44
2022-10-14T22:13:48.751Z,83.05
2022-10-14T22:16:15.877Z,81.92
2022-10-14T22:18:42.465Z,84.27
2022-10-14T22:21:09.259Z,84.16
2022-10-14T22:23:37.090Z,86.68
2022-10-14T22:26:04.856Z,83.94
2022-10-14T22:28:31.610Z,85.24
2022-10-14T22:31:03.857Z,85.30
2022-10-14T22:33:30.333Z,83.14
2022-10-14T22:36:05.578Z,83.99
2022-10-14T22:38:32.003Z,85.65
2022-10-14T22:41:01.490Z,83.14
2022-10-14T22:43:28.148Z,82.88
2022-10-14T22:45:59.062Z,81.24
2022-10-14T22:48:25.520Z,82.61
2022-10-14T22:50:51.932Z,81.96
2022-10-14T22:53:18.423Z,82.05
2022-10-14T22:55:50.562Z,85.37
2022-10-14T22:58:18.416Z,84.08
2022-10-14T23:00:45.418Z,84.60
2022-10-14T23:03:12.297Z,82.93
2022-10-14T23:05:38.857Z,84.00
2022-10-14T23:08:05.421Z,83.24
2022-10-14T23:10:31.907Z,82.16
2022-10-14T23:12:58.311Z,82.78
2022-10-14T23:15:26.178Z,81.19
2022-10-14T23:17:52.619Z,83.55
2022-10-14T23:20:19.044Z,82.12
2022-10-14T23:22:45.438Z,80.39
2022-10-14T23:25:11.886Z,82.49
2022-10-14T23:27:38.340Z,82.41
2022-10-14T23:30:06.147Z,82.00
2022-10-14T23:32:33.921Z,81.79
2022-10-14T23:35:00.321Z,83.02
2022-10-14T23:37:26.709Z,81.90
2022-10-14T23:39:53.124Z,83.20
2022-10-14T23:42:19.525Z,82.00
2022-10-14T23:44:46.025Z,82.17
2022-10-14T23:47:12.426Z,80.68
2022-10-14T23:49:40.187Z,82.61
2022-10-14T23:52:06.588Z,81.65
2022-10-14T23:54:33.003Z,82.77
2022-10-14T23:56:59.389Z,81.95
2022-10-14T23:59:25.910Z,82.90
